createdAt,value
2022-09-23T00:00:14.147Z,9.90
2022-09-23T00:02:47.164Z,17.35
2022-09-23T00:05:14.084Z,13.07
2022-09-23T00:07:41.167Z,14.85
2022-09-23T00:10:08.453Z,10.05
2022-09-23T00:12:38.061Z,18.97
2022-09-23T00:15:13.622Z,12.55
2022-09-23T00:17:42.888Z,13.02
2022-09-23T00:20:15.818Z,9.98
2022-09-23T00:22:45.649Z,16.38
2022-09-23T00:25:12.632Z,9.17
2022-09-23T00:27:43.342Z,10.77
2022-09-23T00:30:15.273Z,19.27
2022-09-23T00:32:46.400Z,11.70
2022-09-23T00:35:18.508Z,13.95
2022-09-23T00:37:45.171Z,11.17
2022-09-23T00:40:12.051Z,18.58
2022-09-23T00:42:45.053Z,10.63
2022-09-23T00:45:20.669Z,11.18
2022-09-23T00:47:54.857Z,12.15
2022-09-23T00:53:30.874Z,11.05
2022-09-23T00:56:04.079Z,10.77
2022-09-23T00:58:42.716Z,11.82
2022-09-23T01:01:09.441Z,10.93
2022-09-23T01:03:45.982Z,16.73
2022-09-23T01:06:15.309Z,14.63
2022-09-23T01:08:52.092Z,15.25
2022-09-23T01:11:57.326Z,10.90
2022-09-23T01:15:01.173Z,11.68
2022-09-23T01:20:58.458Z,12.30
2022-09-23T01:24:01.044Z,13.30
2022-09-23T01:26:49.188Z,11.80
2022-09-23T01:29:46.611Z,11.63
2022-09-23T01:35:36.354Z,18.05
2022-09-23T01:38:39.809Z,18.30
2022-09-23T01:41:44.967Z,13.00
2022-09-23T01:44:21.516Z,16.30
2022-09-23T01:47:01.697Z,17.37
2022-09-23T01:49:57.401Z,14.43
2022-09-23T01:52:29.163Z,11.23
2022-09-23T01:55:03.930Z,13.20
2022-09-23T01:57:38.157Z,12.10
2022-09-23T02:00:17.043Z,13.33
2022-09-23T02:02:57.833Z,18.90
2022-09-23T02:05:37.536Z,11.63
2022-09-23T02:08:36.266Z,13.80
2022-09-23T02:11:11.564Z,19.17
2022-09-23T02:14:16.832Z,11.93
2022-09-23T02:16:56.610Z,20.08
2022-09-23T02:19:32.017Z,11.95
2022-09-23T02:22:08.292Z,12.65
2022-09-23T02:24:38.248Z,13.73
2022-09-23T02:27:31.248Z,12.73
2022-09-23T02:30:16.093Z,18.08
2022-09-23T02:33:12.824Z,15.45
2022-09-23T02:35:54.951Z,11.05
2022-09-23T02:38:49.656Z,14.30
2022-09-23T02:41:19.991Z,11.90
2022-09-23T02:43:53.933Z,14.48
2022-09-23T02:46:21.016Z,10.98
2022-09-23T02:48:55.559Z,19.90
2022-09-23T02:51:23.254Z,12.27
2022-09-23T02:53:49.955Z,12.50
2022-09-23T02:56:20.801Z,18.70
2022-09-23T02:58:49.167Z,12.07
2022-09-23T03:01:44.005Z,14.30
2022-09-23T03:04:19.632Z,12.57
2022-09-23T03:07:01.043Z,15.30
2022-09-23T03:09:52.903Z,11.35
2022-09-23T03:12:50.431Z,12.85
2022-09-23T03:15:31.248Z,15.50
2022-09-23T03:18:25.044Z,13.80
2022-09-23T03:20:54.256Z,12.30
2022-09-23T03:23:25.949Z,14.35
2022-09-23T03:25:55.371Z,15.13
2022-09-23T03:28:23.476Z,11.75
2022-09-23T03:30:52.412Z,12.02
2022-09-23T03:33:26.787Z,18.13
2022-09-23T03:36:01.751Z,11.75
2022-09-23T03:38:34.942Z,12.15
2022-09-23T03:41:04.134Z,19.50
2022-09-23T03:43:36.517Z,12.00
2022-09-23T03:46:05.774Z,19.00
2022-09-23T03:48:32.447Z,12.10
2022-09-23T03:51:21.812Z,13.68
2022-09-23T03:53:48.694Z,18.27
2022-09-23T03:56:15.416Z,12.93
2022-09-23T03:58:41.984Z,14.70
2022-09-23T04:01:20.768Z,11.95
2022-09-23T04:04:26.409Z,12.45
2022-09-23T04:06:58.972Z,14.00
2022-09-23T04:09:40.001Z,14.10
2022-09-23T04:12:11.665Z,19.37
2022-09-23T04:14:38.525Z,12.15
2022-09-23T04:17:09.936Z,14.40
2022-09-23T04:19:39.522Z,12.85
2022-09-23T04:22:18.165Z,15.70
2022-09-23T04:27:34.229Z,11.85
2022-09-23T04:30:04.341Z,14.93
2022-09-23T04:32:31.002Z,10.50
2022-09-23T04:34:57.675Z,10.15
2022-09-23T04:37:24.374Z,12.90
2022-09-23T04:40:00.170Z,11.75
2022-09-23T04:42:29.036Z,12.30
2022-09-23T04:45:05.326Z,10.20
2022-09-23T04:47:38.093Z,9.30
2022-09-23T04:50:19.376Z,11.07
2022-09-23T04:52:49.139Z,9.70
2022-09-23T04:55:15.917Z,9.57
2022-09-23T04:57:45.619Z,10.18
2022-09-23T05:00:17.521Z,13.27
2022-09-23T05:02:47.695Z,11.03
2022-09-23T05:05:22.821Z,12.73
2022-09-23T05:07:55.595Z,12.25
2022-09-23T05:10:37.773Z,9.85
2022-09-23T05:13:13.218Z,17.80
2022-09-23T05:15:45.896Z,9.10
2022-09-23T05:18:12.602Z,16.13
2022-09-23T05:21:05.085Z,10.38
2022-09-23T05:23:55.571Z,12.02
2022-09-23T05:26:24.204Z,16.95
2022-09-23T05:28:51.332Z,12.77
2022-09-23T05:31:22.240Z,17.35
2022-09-23T05:34:03.712Z,10.88
2022-09-23T05:36:40.133Z,8.38
2022-09-23T05:39:08.059Z,9.02
2022-09-23T05:41:35.547Z,9.93
2022-09-23T05:44:02.635Z,9.55
2022-09-23T05:46:32.304Z,11.35
2022-09-23T05:49:02.578Z,11.10
2022-09-23T05:51:31.661Z,13.70
2022-09-23T05:56:45.976Z,12.30
2022-09-23T05:59:16.534Z,9.25
2022-09-23T06:04:24.728Z,9.68
2022-09-23T06:07:23.895Z,10.97
2022-09-23T06:09:53.317Z,10.00
2022-09-23T06:12:23.157Z,9.15
2022-09-23T06:15:04.254Z,9.20
2022-09-23T06:34:09.337Z,16.45
2022-09-23T06:36:43.931Z,12.90
2022-09-23T06:39:11.899Z,8.70
2022-09-23T06:41:38.572Z,9.35
2022-09-23T06:44:05.467Z,9.13
2022-09-23T06:46:32.226Z,8.85
2022-09-23T06:48:59.111Z,8.67
2022-09-23T06:51:25.771Z,9.35
2022-09-23T06:53:53.508Z,8.52
2022-09-23T06:56:20.077Z,10.02
2022-09-23T06:58:47.325Z,9.00
2022-09-23T07:01:16.131Z,8.80
2022-09-23T07:03:44.511Z,8.00
2022-09-23T07:06:11.598Z,8.57
2022-09-23T07:09:11.797Z,7.97
2022-09-23T07:11:38.374Z,10.00
2022-09-23T07:17:41.818Z,8.50
2022-09-23T07:43:06.757Z,9.30
2022-09-23T07:45:33.465Z,7.50
2022-09-23T07:48:02.875Z,8.45
2022-09-23T07:50:39.235Z,7.80
2022-09-23T07:53:08.983Z,8.43
2022-09-23T07:55:35.795Z,16.13
2022-09-23T07:58:08.421Z,10.85
2022-09-23T08:00:37.948Z,7.90
2022-09-23T08:03:10.558Z,9.80
2022-09-23T08:05:46.107Z,10.32
2022-09-23T08:08:21.741Z,8.30
2022-09-23T08:11:02.499Z,9.40
2022-09-23T08:13:29.311Z,10.82
2022-09-23T08:15:56.540Z,9.63
2022-09-23T08:18:31.238Z,8.93
2022-09-23T08:21:01.205Z,10.77
2022-09-23T08:23:34.024Z,7.60
2022-09-23T08:26:19.891Z,9.07
2022-09-23T08:28:49.142Z,8.70
2022-09-23T08:31:16.172Z,7.53
2022-09-23T08:33:46.081Z,7.87
2022-09-23T08:36:18.098Z,6.72
2022-09-23T08:38:53.777Z,7.15
2022-09-23T08:41:35.294Z,7.38
2022-09-23T08:44:25.464Z,14.85
2022-09-23T08:47:22.914Z,7.20
2022-09-23T08:50:11.330Z,12.25
2022-09-23T08:55:49.200Z,10.05
2022-09-23T09:01:36.599Z,14.33
2022-09-23T09:04:14.837Z,10.70
2022-09-23T09:06:53.641Z,7.45
2022-09-23T09:09:46.849Z,8.45
2022-09-23T09:12:31.068Z,6.35
2022-09-23T09:15:06.989Z,10.43
2022-09-23T09:20:15.514Z,14.80
2022-09-23T09:25:57.319Z,12.88
2022-09-23T09:31:57.013Z,10.98
2022-09-23T09:34:58.371Z,7.50
2022-09-23T09:37:31.827Z,10.18
2022-09-23T09:40:00.544Z,15.25
2022-09-23T09:46:04.809Z,7.95
2022-09-23T09:51:24.511Z,7.35
2022-09-23T09:53:54.281Z,6.25
2022-09-23T09:56:35.500Z,9.90
2022-09-23T09:59:09.905Z,14.80
2022-09-23T10:01:37.169Z,11.40
2022-09-23T10:04:06.780Z,6.63
2022-09-23T10:06:39.049Z,7.47
2022-09-23T10:09:13.544Z,6.67
2022-09-23T10:11:44.733Z,13.10
2022-09-23T10:14:23.717Z,9.40
2022-09-23T10:17:24.242Z,11.93
2022-09-23T10:23:26.792Z,16.83
2022-09-23T10:29:02.058Z,12.73
2022-09-23T10:37:34.038Z,7.70
2022-09-23T10:40:37.670Z,9.38
2022-09-23T10:43:37.184Z,7.38
2022-09-23T10:46:08.136Z,7.32
2022-09-23T10:49:01.680Z,7.05
2022-09-23T10:52:06.685Z,7.90
2022-09-23T10:54:36.154Z,8.85
2022-09-23T11:01:15.208Z,6.57
2022-09-23T11:04:19.109Z,8.07
2022-09-23T11:07:33.821Z,5.77
2022-09-23T11:10:00.590Z,11.27
2022-09-23T11:19:29.402Z,10.38
2022-09-23T11:22:08.272Z,6.70
2022-09-23T11:25:12.222Z,12.85
2022-09-23T11:28:05.797Z,5.53
2022-09-23T11:31:16.821Z,7.25
2022-09-23T11:43:40.980Z,12.90
2022-09-23T11:46:45.319Z,4.82
2022-09-23T11:49:57.727Z,7.30
2022-09-23T12:01:54.491Z,8.98
2022-09-23T12:04:57.358Z,8.82
2022-09-23T12:07:33.226Z,6.30
2022-09-23T12:10:29.368Z,9.00
2022-09-23T12:13:38.264Z,13.00
2022-09-23T12:16:42.067Z,6.50
2022-09-23T12:19:43.109Z,10.15
2022-09-23T12:22:26.287Z,11.77
2022-09-23T12:25:31.355Z,5.97
2022-09-23T12:28:10.698Z,12.05
2022-09-23T12:30:39.712Z,11.65
2022-09-23T12:33:11.164Z,6.85
2022-09-23T12:35:43.312Z,9.47
2022-09-23T12:38:31.980Z,7.88
2022-09-23T12:41:41.932Z,6.72
2022-09-23T12:44:12.647Z,6.70
2022-09-23T12:46:40.755Z,6.30
2022-09-23T12:49:23.720Z,7.00
2022-09-23T12:52:12.115Z,7.25
2022-09-23T12:54:40.345Z,7.10
2022-09-23T12:57:31.689Z,12.02
2022-09-23T13:00:08.837Z,8.52
2022-09-23T13:02:56.202Z,7.47
2022-09-23T13:05:32.662Z,9.52
2022-09-23T13:08:05.148Z,7.45
2022-09-23T13:10:46.130Z,8.15
2022-09-23T13:13:33.218Z,10.48
2022-09-23T13:16:39.497Z,12.97
2022-09-23T13:22:41.094Z,8.40
2022-09-23T13:25:19.246Z,9.45
2022-09-23T13:27:51.787Z,10.35
2022-09-23T13:30:25.700Z,13.93
2022-09-23T13:33:16.276Z,8.98
2022-09-23T13:36:12.622Z,9.90
2022-09-23T13:38:41.789Z,7.18
2022-09-23T13:41:41.938Z,6.90
2022-09-23T13:44:16.576Z,6.67
2022-09-23T13:46:47.130Z,7.55
2022-09-23T13:49:25.726Z,7.20
2022-09-23T13:51:53.206Z,6.90
2022-09-23T13:57:28.882Z,7.00
2022-09-23T14:00:27.818Z,5.53
2022-09-23T14:02:54.604Z,6.43
2022-09-23T14:05:25.583Z,9.05
2022-09-23T14:07:59.226Z,7.43
2022-09-23T14:10:29.114Z,6.40
2022-09-23T14:12:58.342Z,4.88
2022-09-23T14:15:25.642Z,7.97
2022-09-23T14:18:02.918Z,7.95
2022-09-23T14:20:32.109Z,7.45
2022-09-23T14:25:42.473Z,5.80
2022-09-23T14:28:20.891Z,6.43
2022-09-23T14:30:49.496Z,7.18
2022-09-23T14:33:28.234Z,10.93
2022-09-23T14:38:45.169Z,6.28
2022-09-23T14:41:36.588Z,9.95
2022-09-23T14:44:22.140Z,5.80
2022-09-23T14:47:00.496Z,9.88
2022-09-23T14:49:36.356Z,6.17
2022-09-23T14:52:06.785Z,6.68
2022-09-23T14:55:14.098Z,13.93
2022-09-23T14:57:46.761Z,4.95
2022-09-23T15:00:22.925Z,6.75
2022-09-23T15:03:15.025Z,10.27
2022-09-23T15:08:45.006Z,7.65
2022-09-23T15:11:24.503Z,7.47
2022-09-23T15:14:19.537Z,8.77
2022-09-23T15:16:50.028Z,8.03
2022-09-23T15:19:19.887Z,7.45
2022-09-23T15:21:55.630Z,7.82
2022-09-23T15:24:40.931Z,7.70
2022-09-23T15:27:41.881Z,8.25
2022-09-23T15:30:19.405Z,9.93
2022-09-23T15:32:46.726Z,12.30
2022-09-23T15:35:20.610Z,8.63
2022-09-23T15:37:49.762Z,8.00
2022-09-23T15:40:28.771Z,10.13
2022-09-23T15:43:21.043Z,9.07
2022-09-23T15:46:19.401Z,14.32
2022-09-23T15:48:58.929Z,9.98
2022-09-23T15:51:27.381Z,10.57
2022-09-23T15:53:54.722Z,10.25
2022-09-23T15:56:27.021Z,11.63
2022-09-23T15:58:56.074Z,11.88
2022-09-23T16:01:34.932Z,13.13
2022-09-23T16:04:02.401Z,13.30
2022-09-23T16:06:38.419Z,13.45
2022-09-23T16:09:08.446Z,12.13
2022-09-23T16:11:38.167Z,13.60
2022-09-23T16:14:12.886Z,12.43
2022-09-23T16:16:42.721Z,12.07
2022-09-23T16:19:09.571Z,13.82
2022-09-23T16:21:38.979Z,14.40
2022-09-23T16:24:15.807Z,13.98
2022-09-23T16:26:42.863Z,12.13
2022-09-23T16:29:14.969Z,12.48
2022-09-23T16:31:47.511Z,12.93
2022-09-23T16:34:16.962Z,15.30
2022-09-23T16:36:49.090Z,15.43
2022-09-23T16:39:15.710Z,13.70
2022-09-23T16:41:50.269Z,14.90
2022-09-23T16:44:16.860Z,15.05
2022-09-23T16:46:43.482Z,14.03
2022-09-23T16:49:10.522Z,15.07
2022-09-23T16:51:46.278Z,14.90
2022-09-23T16:54:15.678Z,13.77
2022-09-23T16:59:34.572Z,15.70
2022-09-23T17:02:01.235Z,14.38
2022-09-23T17:04:30.510Z,15.68
2022-09-23T17:06:57.828Z,14.52
2022-09-23T17:09:29.376Z,16.67
2022-09-23T17:12:11.500Z,17.73
2022-09-23T17:14:38.089Z,16.17
2022-09-23T17:17:04.762Z,14.98
2022-09-23T17:19:34.400Z,18.17
2022-09-23T17:22:13.379Z,15.70
2022-09-23T17:24:40.252Z,16.87
2022-09-23T17:27:09.977Z,15.48
2022-09-23T17:29:36.602Z,17.80
2022-09-23T17:32:11.378Z,16.25
2022-09-23T17:34:38.074Z,16.55
2022-09-23T17:37:04.765Z,16.00
2022-09-23T17:39:31.483Z,19.20
2022-09-23T17:41:58.137Z,17.60
2022-09-23T17:44:24.868Z,15.85
2022-09-23T17:46:51.710Z,18.17
2022-09-23T17:49:18.365Z,18.40
2022-09-23T17:51:45.060Z,17.05
2022-09-23T17:54:11.730Z,19.55
2022-09-23T17:56:38.363Z,18.65
2022-09-23T17:59:04.952Z,18.20
2022-09-23T18:01:31.664Z,17.57
2022-09-23T18:04:00.721Z,19.08
2022-09-23T18:06:29.520Z,17.38
2022-09-23T18:08:57.953Z,17.65
2022-09-23T18:11:29.441Z,18.67
2022-09-23T18:14:04.767Z,18.33
2022-09-23T18:16:35.243Z,22.85
2022-09-23T18:19:04.132Z,19.45
2022-09-23T18:21:33.666Z,18.05
2022-09-23T18:24:28.587Z,17.20
2022-09-23T18:26:47.914Z,17.50
2022-09-23T18:29:14.509Z,17.67
2022-09-23T18:48:21.094Z,18.75
2022-09-23T18:50:47.834Z,18.25
2022-09-23T18:53:14.547Z,20.13
2022-09-23T18:55:42.019Z,21.80
2022-09-23T18:58:15.168Z,18.88
2022-09-23T19:00:45.042Z,18.75
2022-09-23T19:04:04.457Z,19.20
2022-09-23T19:06:52.958Z,23.80
2022-09-23T19:18:16.616Z,19.80
2022-09-23T19:20:55.038Z,21.80
2022-09-23T19:23:21.950Z,20.40
2022-09-23T19:26:01.036Z,19.55
2022-09-23T19:28:27.927Z,20.50
2022-09-23T19:30:54.582Z,20.08
2022-09-23T19:33:22.280Z,20.63
2022-09-23T19:35:50.838Z,24.05
2022-09-23T19:38:18.617Z,20.83
2022-09-23T19:40:49.742Z,19.92
2022-09-23T19:43:16.731Z,20.88
2022-09-23T19:45:43.412Z,21.30
2022-09-23T19:48:10.439Z,22.60
2022-09-23T19:50:40.192Z,19.73
2022-09-23T19:53:07.459Z,19.80
2022-09-23T19:55:37.418Z,20.73
2022-09-23T19:58:04.465Z,19.97
2022-09-23T20:00:32.179Z,19.45
2022-09-23T20:02:59.417Z,21.50
2022-09-23T20:05:26.756Z,20.30
2022-09-23T20:07:53.426Z,21.02
2022-09-23T20:10:20.353Z,21.63
2022-09-23T20:12:46.946Z,17.38
2022-09-23T20:15:14.373Z,18.45
2022-09-23T20:17:41.053Z,20.25
2022-09-23T20:20:09.777Z,19.48
2022-09-23T20:23:00.984Z,14.97
2022-09-23T20:25:27.747Z,11.82
2022-09-23T20:27:55.590Z,12.05
2022-09-23T20:30:22.207Z,13.68
2022-09-23T20:35:18.997Z,10.70
2022-09-23T20:39:02.035Z,13.00
2022-09-23T20:41:55.451Z,15.20
2022-09-23T20:44:52.375Z,14.88
2022-09-23T20:50:05.077Z,12.53
2022-09-23T20:55:35.935Z,11.27
2022-09-23T21:05:28.619Z,15.50
2022-09-23T21:08:00.756Z,17.80
2022-09-23T21:10:29.517Z,12.73
2022-09-23T21:12:58.297Z,11.80
2022-09-23T21:15:37.284Z,13.52
2022-09-23T21:18:05.086Z,13.80
2022-09-23T21:20:34.939Z,15.73
2022-09-23T21:23:10.476Z,14.18
2022-09-23T21:25:37.737Z,11.85
2022-09-23T21:28:10.963Z,13.68
2022-09-23T21:30:42.035Z,11.67
2022-09-23T21:33:14.178Z,15.55
2022-09-23T21:35:47.533Z,16.98
2022-09-23T21:38:14.380Z,14.73
2022-09-23T21:41:15.638Z,12.80
2022-09-23T21:50:31.539Z,14.88
2022-09-23T21:52:59.270Z,15.77
2022-09-23T21:55:29.693Z,19.25
2022-09-23T21:58:01.618Z,14.87
2022-09-23T22:00:34.222Z,17.88
2022-09-23T22:03:00.906Z,16.25
2022-09-23T22:05:36.566Z,17.58
2022-09-23T22:08:03.163Z,22.13
2022-09-23T22:10:31.796Z,18.47
2022-09-23T22:12:58.476Z,23.60
2022-09-23T22:15:31.139Z,20.67
2022-09-23T22:18:09.103Z,19.33
2022-09-23T22:20:35.769Z,19.98
2022-09-23T22:23:08.438Z,24.67
2022-09-23T22:25:37.359Z,20.63
2022-09-23T22:28:12.688Z,19.83
2022-09-23T22:30:39.406Z,23.98
2022-09-23T22:33:09.064Z,23.70
2022-09-23T22:35:35.673Z,19.13
2022-09-23T22:38:15.664Z,18.38
2022-09-23T22:40:47.838Z,21.17
2022-09-23T22:43:20.507Z,22.77
2022-09-23T22:45:53.040Z,25.73
2022-09-23T22:48:21.956Z,20.27
2022-09-23T22:50:54.203Z,26.95
2022-09-23T22:53:23.098Z,22.88
2022-09-23T22:56:39.205Z,20.25
2022-09-23T22:59:07.870Z,21.67
2022-09-23T23:01:37.695Z,20.87
2022-09-23T23:04:04.719Z,21.60
2022-09-23T23:06:39.663Z,21.02
2022-09-23T23:09:13.314Z,27.48
2022-09-23T23:11:43.170Z,21.50
2022-09-23T23:14:11.256Z,23.37
2022-09-23T23:16:38.459Z,29.90
2022-09-23T23:19:17.708Z,24.27
2022-09-23T23:21:45.111Z,23.67
2022-09-23T23:24:26.631Z,25.65
2022-09-23T23:26:57.753Z,23.80
2022-09-23T23:29:26.829Z,22.92
2022-09-23T23:31:58.831Z,26.83
2022-09-23T23:34:28.483Z,33.60
2022-09-23T23:37:04.196Z,26.38
2022-09-23T23:39:36.221Z,23.10
2022-09-23T23:42:02.945Z,22.30
2022-09-23T23:44:35.001Z,24.65
2022-09-23T23:47:07.217Z,28.38
2022-09-23T23:49:42.748Z,24.58
2022-09-23T23:52:19.810Z,23.83
2022-09-23T23:54:49.367Z,23.85
2022-09-23T23:57:18.882Z,23.85
2022-09-23T23:59:54.102Z,21.90
